Skiathos — DK6478 — position and weather

sailwx.info

Track history (hours):
 
Tides and Currents Weather Stations Pressure Air Temp Water Temp Dewpoint Dewpoint Depression Visibility Wind Speed Wind Dir Waves Ship Positions

Skiathos

Last reported at 2017-Nov-19 16:15 UTC. Time now 2017-Nov-22 18:05 UTC.
Position N 27°56' W 015°19'.

Length 14 m.

Type: Sailing vessel. MMSI: 211552340.

Date/timePositionNaut miles runAvg speedWind from/ knotsBaromVisibWave heightAir tempDewpointWater temp
2017-Nov-19 16:15N 27°56' W 015°19'1 4.7
2017-Nov-19 15:58N 27°57' W 015°19'2 4.5
2017-Nov-19 15:28N 27°59' W 015°20'2 4.4
2017-Nov-19 14:57N 28°01' W 015°21'2 3.3
2017-Nov-19 14:27N 28°03' W 015°22'2 3.4
2017-Nov-19 13:57N 28°04' W 015°22'2 4.0
2017-Nov-19 13:27N 28°06' W 015°24'2 3.2
2017-Nov-19 12:56N 28°07' W 015°25'1 0.1
2017-Nov-18 18:16N 28°08' W 015°26'0 0.0
2017-Nov-18 17:49N 28°08' W 015°26'0 0.0
2017-Nov-18 17:22N 28°08' W 015°26'0 0.0
2017-Nov-18 16:52N 28°08' W 015°26'0 0.0
2017-Nov-17 12:42N 28°08' W 015°26'0 0.3
2017-Nov-17 12:14N 28°08' W 015°26'0 0.1
2017-Nov-17 11:55N 28°08' W 015°26'2 4.1
2017-Nov-17 11:30N 28°07' W 015°24'1 2.1
2017-Nov-17 11:00N 28°06' W 015°23'1 1.1
2017-Nov-17 10:27N 28°06' W 015°23'1 2.3
2017-Nov-17 09:57N 28°07' W 015°24'1 2.5
2017-Nov-17 09:27N 28°08' W 015°25'  
2017-Nov-12 06:55N 28°08' W 015°26'0 0.0
2017-Nov-12 06:13N 28°08' W 015°26'0 0.0
2017-Nov-12 05:58N 28°08' W 015°26'0 0.0
2017-Nov-12 05:28N 28°08' W 015°26'0 0.0
2017-Nov-12 04:58N 28°08' W 015°26'0 0.0
2017-Nov-12 04:28N 28°08' W 015°26'0 0.0
2017-Nov-12 03:49N 28°08' W 015°26'0 0.0
2017-Nov-12 03:28N 28°08' W 015°26'0 0.0
2017-Nov-12 02:46N 28°08' W 015°26'0 0.0
2017-Nov-12 02:16N 28°08' W 015°26'0 0.0
2017-Nov-12 01:46N 28°08' W 015°26'0 0.0
2017-Nov-12 01:22N 28°08' W 015°26'0 0.0
2017-Nov-12 00:52N 28°08' W 015°26'0 0.0
2017-Nov-12 00:22N 28°08' W 015°26'0 0.0
2017-Nov-11 23:52N 28°08' W 015°26'0 0.0
2017-Nov-11 23:22N 28°08' W 015°26'0 0.0
2017-Nov-11 22:58N 28°08' W 015°26'0 0.0
2017-Nov-11 22:28N 28°08' W 015°26'0 0.0
2017-Nov-11 21:46N 28°08' W 015°26'0 0.0
2017-Nov-11 21:28N 28°08' W 015°26'0 0.0
2017-Nov-11 20:55N 28°08' W 015°26'0 0.0
2017-Nov-11 20:28N 28°08' W 015°26'0 0.0
2017-Nov-11 18:43N 28°08' W 015°26'0 0.0
2017-Nov-11 18:28N 28°08' W 015°26'0 0.0
2017-Nov-11 17:58N 28°08' W 015°26'0 0.0
2017-Nov-11 17:16N 28°08' W 015°26'0 0.0
2017-Nov-11 16:22N 28°08' W 015°26'0 0.0
2017-Nov-11 15:52N 28°08' W 015°26'0 0.0
2017-Nov-11 15:16N 28°08' W 015°26'0 0.0
2017-Nov-11 14:34N 28°08' W 015°26'0 0.0
2017-Nov-11 14:22N 28°08' W 015°26'0 0.0
2017-Nov-11 13:52N 28°08' W 015°26'0 0.0
2017-Nov-11 13:22N 28°08' W 015°26'0 0.0
2017-Nov-11 12:55N 28°08' W 015°26'0 0.0
2017-Nov-11 12:25N 28°08' W 015°26'0 0.0
2017-Nov-11 11:40N 28°08' W 015°26'0 0.0
2017-Nov-11 11:25N 28°08' W 015°26'0 0.0
2017-Nov-11 10:52N 28°08' W 015°26'0 0.3
2017-Nov-11 10:28N 28°08' W 015°26'0 0.1
2017-Nov-11 09:59N 28°08' W 015°25'0 0.0
2017-Nov-11 09:29N 28°08' W 015°25'0 0.0
2017-Nov-11 08:59N 28°08' W 015°25'0 0.0
2017-Nov-11 08:29N 28°08' W 015°26'0 0.0
2017-Nov-11 07:59N 28°08' W 015°25'0 0.0
2017-Nov-11 07:29N 28°08' W 015°25'0 0.0
2017-Nov-10 22:02N 28°08' W 015°25'0 0.0
2017-Nov-10 21:59N 28°08' W 015°25'0 0.0
2017-Nov-10 21:29N 28°08' W 015°25'0 0.0
2017-Nov-10 20:59N 28°08' W 015°25'0 0.0
2017-Nov-10 20:29N 28°08' W 015°25'0 0.2
2017-Nov-10 19:59N 28°08' W 015°25'2 4.7
2017-Nov-10 19:29N 28°08' W 015°23'3 5.7
2017-Nov-10 18:59N 28°08' W 015°19'3 6.7
2017-Nov-10 18:28N 28°07' W 015°16'4 6.9
2017-Nov-10 17:58N 28°07' W 015°12'4 7.1
2017-Nov-10 17:28N 28°07' W 015°08'4 7.3
2017-Nov-10 16:56N 28°08' W 015°03'4 7.3
2017-Nov-10 16:26N 28°08' W 014°59'4 7.7
2017-Nov-10 15:56N 28°08' W 014°55'4 7.5
2017-Nov-10 15:26N 28°08' W 014°51'5 7.5
2017-Nov-10 14:44N 28°07' W 014°45'2 7.1
2017-Nov-10 14:23N 28°06' W 014°42'  
Track history (hours):
 
Tides and Currents Weather Stations Pressure Air Temp Water Temp Dewpoint Dewpoint Depression Visibility Wind Speed Wind Dir Waves Ship Positions

Skiathos

Last reported at 2017-Nov-19 16:15 UTC. Time now 2017-Nov-22 18:05 UTC.
Position N 27°56' W 015°19'.

Length 14 m.

Type: Sailing vessel. MMSI: 211552340.

Date/timePositionNaut miles runAvg speedWind from/ knotsBaromVisibWave heightAir tempDewpointWater temp
2017-Nov-19 16:15N 27°56' W 015°19'1 4.7
2017-Nov-19 15:58N 27°57' W 015°19'2 4.5
2017-Nov-19 15:28N 27°59' W 015°20'2 4.4
2017-Nov-19 14:57N 28°01' W 015°21'2 3.3
2017-Nov-19 14:27N 28°03' W 015°22'2 3.4
2017-Nov-19 13:57N 28°04' W 015°22'2 4.0
2017-Nov-19 13:27N 28°06' W 015°24'2 3.2
2017-Nov-19 12:56N 28°07' W 015°25'1 0.1
2017-Nov-18 18:16N 28°08' W 015°26'0 0.0
2017-Nov-18 17:49N 28°08' W 015°26'0 0.0
2017-Nov-18 17:22N 28°08' W 015°26'0 0.0
2017-Nov-18 16:52N 28°08' W 015°26'0 0.0
2017-Nov-17 12:42N 28°08' W 015°26'0 0.3
2017-Nov-17 12:14N 28°08' W 015°26'0 0.1
2017-Nov-17 11:55N 28°08' W 015°26'2 4.1
2017-Nov-17 11:30N 28°07' W 015°24'1 2.1
2017-Nov-17 11:00N 28°06' W 015°23'1 1.1
2017-Nov-17 10:27N 28°06' W 015°23'1 2.3
2017-Nov-17 09:57N 28°07' W 015°24'1 2.5
2017-Nov-17 09:27N 28°08' W 015°25'  
2017-Nov-12 06:55N 28°08' W 015°26'0 0.0
2017-Nov-12 06:13N 28°08' W 015°26'0 0.0
2017-Nov-12 05:58N 28°08' W 015°26'0 0.0
2017-Nov-12 05:28N 28°08' W 015°26'0 0.0
2017-Nov-12 04:58N 28°08' W 015°26'0 0.0
2017-Nov-12 04:28N 28°08' W 015°26'0 0.0
2017-Nov-12 03:49N 28°08' W 015°26'0 0.0
2017-Nov-12 03:28N 28°08' W 015°26'0 0.0
2017-Nov-12 02:46N 28°08' W 015°26'0 0.0
2017-Nov-12 02:16N 28°08' W 015°26'0 0.0
2017-Nov-12 01:46N 28°08' W 015°26'0 0.0
2017-Nov-12 01:22N 28°08' W 015°26'0 0.0
2017-Nov-12 00:52N 28°08' W 015°26'0 0.0
2017-Nov-12 00:22N 28°08' W 015°26'0 0.0
2017-Nov-11 23:52N 28°08' W 015°26'0 0.0
2017-Nov-11 23:22N 28°08' W 015°26'0 0.0
2017-Nov-11 22:58N 28°08' W 015°26'0 0.0
2017-Nov-11 22:28N 28°08' W 015°26'0 0.0
2017-Nov-11 21:46N 28°08' W 015°26'0 0.0
2017-Nov-11 21:28N 28°08' W 015°26'0 0.0
2017-Nov-11 20:55N 28°08' W 015°26'0 0.0
2017-Nov-11 20:28N 28°08' W 015°26'0 0.0
2017-Nov-11 18:43N 28°08' W 015°26'0 0.0
2017-Nov-11 18:28N 28°08' W 015°26'0 0.0
2017-Nov-11 17:58N 28°08' W 015°26'0 0.0
2017-Nov-11 17:16N 28°08' W 015°26'0 0.0
2017-Nov-11 16:22N 28°08' W 015°26'0 0.0
2017-Nov-11 15:52N 28°08' W 015°26'0 0.0
2017-Nov-11 15:16N 28°08' W 015°26'0 0.0
2017-Nov-11 14:34N 28°08' W 015°26'0 0.0
2017-Nov-11 14:22N 28°08' W 015°26'0 0.0
2017-Nov-11 13:52N 28°08' W 015°26'0 0.0
2017-Nov-11 13:22N 28°08' W 015°26'0 0.0
2017-Nov-11 12:55N 28°08' W 015°26'0 0.0
2017-Nov-11 12:25N 28°08' W 015°26'0 0.0
2017-Nov-11 11:40N 28°08' W 015°26'0 0.0
2017-Nov-11 11:25N 28°08' W 015°26'0 0.0
2017-Nov-11 10:52N 28°08' W 015°26'0 0.3
2017-Nov-11 10:28N 28°08' W 015°26'0 0.1
2017-Nov-11 09:59N 28°08' W 015°25'0 0.0
2017-Nov-11 09:29N 28°08' W 015°25'0 0.0
2017-Nov-11 08:59N 28°08' W 015°25'0 0.0
2017-Nov-11 08:29N 28°08' W 015°26'0 0.0
2017-Nov-11 07:59N 28°08' W 015°25'0 0.0
2017-Nov-11 07:29N 28°08' W 015°25'0 0.0
2017-Nov-10 22:02N 28°08' W 015°25'0 0.0
2017-Nov-10 21:59N 28°08' W 015°25'0 0.0
2017-Nov-10 21:29N 28°08' W 015°25'0 0.0
2017-Nov-10 20:59N 28°08' W 015°25'0 0.0
2017-Nov-10 20:29N 28°08' W 015°25'0 0.2
2017-Nov-10 19:59N 28°08' W 015°25'2 4.7
2017-Nov-10 19:29N 28°08' W 015°23'3 5.7
2017-Nov-10 18:59N 28°08' W 015°19'3 6.7
2017-Nov-10 18:28N 28°07' W 015°16'4 6.9
2017-Nov-10 17:58N 28°07' W 015°12'4 7.1
2017-Nov-10 17:28N 28°07' W 015°08'4 7.3
2017-Nov-10 16:56N 28°08' W 015°03'4 7.3
2017-Nov-10 16:26N 28°08' W 014°59'4 7.7
2017-Nov-10 15:56N 28°08' W 014°55'4 7.5
2017-Nov-10 15:26N 28°08' W 014°51'5 7.5
2017-Nov-10 14:44N 28°07' W 014°45'2 7.1
2017-Nov-10 14:23N 28°06' W 014°42'  

Dump ship's entire track history